createdAt,value
2019-02-23T00:01:49.841Z,1.20
2019-02-23T00:04:17.825Z,1.77
2019-02-23T00:06:45.977Z,2.70
2019-02-23T00:09:13.927Z,1.07
2019-02-23T00:11:41.940Z,3.00
2019-02-23T00:14:09.887Z,1.70
2019-02-23T00:16:38.160Z,1.17
2019-02-23T00:19:06.183Z,2.80
2019-02-23T00:21:34.121Z,4.30
2019-02-23T00:24:02.375Z,2.50
2019-02-23T00:26:30.464Z,4.87
2019-02-23T00:28:58.548Z,1.47
2019-02-23T00:31:26.611Z,1.37
2019-02-23T00:33:54.683Z,1.83
2019-02-23T00:36:22.717Z,1.83
2019-02-23T00:38:50.741Z,1.70
2019-02-23T00:41:18.869Z,2.30
2019-02-23T00:43:46.970Z,1.33
2019-02-23T00:46:15.017Z,2.77
2019-02-23T00:48:43.119Z,2.00
2019-02-23T00:51:11.215Z,2.03
2019-02-23T00:53:39.254Z,1.70
2019-02-23T00:56:07.295Z,1.37
2019-02-23T00:58:35.323Z,1.67
2019-02-23T01:01:03.372Z,2.47
2019-02-23T01:03:31.554Z,3.57
2019-02-23T01:05:59.888Z,1.37
2019-02-23T01:08:27.935Z,1.83
2019-02-23T01:10:58.405Z,1.73
2019-02-23T01:13:25.955Z,3.10
2019-02-23T01:15:53.975Z,2.83
2019-02-23T01:18:22.016Z,6.10
2019-02-23T01:20:50.059Z,3.00
2019-02-23T01:23:18.016Z,2.60
2019-02-23T01:25:46.032Z,2.67
2019-02-23T01:28:14.021Z,1.83
2019-02-23T01:30:42.067Z,3.07
2019-02-23T01:33:10.067Z,3.37
2019-02-23T01:35:38.243Z,0.93
2019-02-23T01:38:06.287Z,1.63
2019-02-23T01:40:34.329Z,1.87
2019-02-23T01:43:02.537Z,2.40
2019-02-23T01:45:41.859Z,2.20
2019-02-23T01:48:00.740Z,4.20
2019-02-23T01:50:28.785Z,1.70
2019-02-23T01:52:56.864Z,2.50
2019-02-23T01:55:24.943Z,1.87
2019-02-23T01:57:52.963Z,3.13
2019-02-23T02:00:21.509Z,2.67
2019-02-23T02:02:49.862Z,2.10
2019-02-23T02:05:18.395Z,6.23
2019-02-23T02:07:46.617Z,3.23
2019-02-23T02:10:14.644Z,1.87
2019-02-23T02:12:42.723Z,3.37
2019-02-23T02:15:12.304Z,2.33
2019-02-23T02:17:40.339Z,5.00
2019-02-23T02:20:11.405Z,3.50
2019-02-23T02:22:39.016Z,2.20
2019-02-23T02:25:07.212Z,3.80
2019-02-23T02:27:35.373Z,2.00
2019-02-23T02:30:04.276Z,4.23
2019-02-23T02:32:32.119Z,2.70
2019-02-23T02:35:00.326Z,1.57
2019-02-23T02:37:28.614Z,3.53
2019-02-23T02:39:56.743Z,2.07
2019-02-23T02:42:24.656Z,2.97
2019-02-23T02:44:52.804Z,2.13
2019-02-23T02:47:20.847Z,3.90
2019-02-23T02:49:49.282Z,2.93
2019-02-23T02:52:17.330Z,3.53
2019-02-23T02:54:45.407Z,4.60
2019-02-23T02:57:13.425Z,2.37
2019-02-23T02:59:41.563Z,4.00
2019-02-23T03:02:09.582Z,3.60
2019-02-23T03:04:37.609Z,2.43
2019-02-23T03:07:05.746Z,3.53
2019-02-23T03:09:33.856Z,7.33
2019-02-23T03:12:02.207Z,5.67
2019-02-23T03:14:30.239Z,5.30
2019-02-23T03:16:58.282Z,2.80
2019-02-23T03:19:26.443Z,3.00
2019-02-23T03:21:54.451Z,3.80
2019-02-23T03:24:22.467Z,2.70
2019-02-23T03:26:50.402Z,2.67
2019-02-23T03:29:18.358Z,5.27
2019-02-23T03:31:46.291Z,2.07
2019-02-23T03:34:14.241Z,1.83
2019-02-23T03:36:42.274Z,4.90
2019-02-23T03:39:10.364Z,3.57
2019-02-23T03:41:38.307Z,5.07
2019-02-23T03:44:06.268Z,4.00
2019-02-23T03:46:34.226Z,2.50
2019-02-23T03:49:02.277Z,3.30
2019-02-23T03:51:30.390Z,2.50
2019-02-23T03:53:58.523Z,3.93
2019-02-23T03:56:26.451Z,5.07
2019-02-23T03:58:54.594Z,4.67
2019-02-23T04:01:22.635Z,3.70
2019-02-23T04:03:50.664Z,3.93
2019-02-23T04:06:18.789Z,6.63
2019-02-23T04:08:46.823Z,4.70
2019-02-23T04:11:14.956Z,4.50
2019-02-23T04:13:43.023Z,6.57
2019-02-23T04:16:11.163Z,4.63
2019-02-23T04:18:39.293Z,3.40
2019-02-23T04:21:07.519Z,6.63
2019-02-23T04:23:35.543Z,4.37
2019-02-23T04:26:03.688Z,5.03
2019-02-23T04:28:31.867Z,4.73
2019-02-23T04:31:00.105Z,6.47
2019-02-23T04:33:28.152Z,4.50
2019-02-23T04:35:56.225Z,4.57
2019-02-23T04:38:24.279Z,3.57
2019-02-23T04:40:52.444Z,4.03
2019-02-23T04:43:20.547Z,6.70
2019-02-23T04:45:48.873Z,6.83
2019-02-23T04:48:16.896Z,6.67
2019-02-23T04:50:44.951Z,5.30
2019-02-23T04:53:12.803Z,5.70
2019-02-23T04:55:41.191Z,5.77
2019-02-23T04:58:09.268Z,5.20
2019-02-23T05:00:37.357Z,5.23
2019-02-23T05:03:05.553Z,7.10
2019-02-23T05:05:33.722Z,6.40
2019-02-23T05:08:01.752Z,5.13
2019-02-23T05:10:29.773Z,4.80
2019-02-23T05:12:58.063Z,6.47
2019-02-23T05:15:26.311Z,5.07
2019-02-23T05:17:55.566Z,5.73
2019-02-23T05:20:23.584Z,5.33
2019-02-23T05:22:51.757Z,5.97
2019-02-23T05:25:19.804Z,7.20
2019-02-23T05:27:47.873Z,6.40
2019-02-23T05:30:15.926Z,7.07
2019-02-23T05:32:43.937Z,6.67
2019-02-23T05:35:12.320Z,4.90
2019-02-23T05:37:40.467Z,6.03
2019-02-23T05:40:09.099Z,9.77
2019-02-23T05:42:36.947Z,6.40
2019-02-23T05:45:05.496Z,5.30
2019-02-23T05:47:33.651Z,6.03
2019-02-23T05:50:01.743Z,4.93
2019-02-23T05:52:29.815Z,6.77
2019-02-23T05:54:57.896Z,6.70
2019-02-23T05:57:27.552Z,9.43
2019-02-23T05:59:55.915Z,8.40
2019-02-23T06:02:23.889Z,6.33
2019-02-23T06:04:51.928Z,6.83
2019-02-23T06:07:20.107Z,7.90
2019-02-23T06:09:48.175Z,6.50
2019-02-23T06:12:16.252Z,6.63
2019-02-23T06:14:44.635Z,7.30
2019-02-23T06:17:12.724Z,6.53
2019-02-23T06:19:40.667Z,8.23
2019-02-23T06:22:08.792Z,6.13
2019-02-23T06:24:36.859Z,5.87
2019-02-23T06:27:04.888Z,7.40
2019-02-23T06:29:32.932Z,9.00
2019-02-23T06:32:01.101Z,5.30
2019-02-23T06:34:29.209Z,7.90
2019-02-23T06:36:57.248Z,5.80
2019-02-23T06:39:25.352Z,6.93
2019-02-23T06:41:53.643Z,8.27
2019-02-23T06:44:21.742Z,6.90
2019-02-23T06:46:49.983Z,5.00
2019-02-23T06:49:18.178Z,6.50
2019-02-23T06:51:46.204Z,6.40
2019-02-23T06:54:14.357Z,6.53
2019-02-23T06:56:42.382Z,6.57
2019-02-23T06:59:10.452Z,6.60
2019-02-23T07:01:38.599Z,5.77
2019-02-23T07:04:06.921Z,5.40
2019-02-23T07:06:34.941Z,6.07
2019-02-23T07:09:04.241Z,5.97
2019-02-23T07:11:32.316Z,5.67
2019-02-23T07:14:00.407Z,8.17
2019-02-23T07:16:28.448Z,5.80
2019-02-23T07:18:56.504Z,4.83
2019-02-23T07:21:24.656Z,6.33
2019-02-23T07:23:52.603Z,6.13
2019-02-23T07:26:20.744Z,9.13
2019-02-23T07:28:48.740Z,5.03
2019-02-23T07:31:16.872Z,4.00
2019-02-23T07:33:44.967Z,7.40
2019-02-23T07:36:12.988Z,6.70
2019-02-23T07:38:41.232Z,5.63
2019-02-23T07:41:12.468Z,4.10
2019-02-23T07:43:40.519Z,6.00
2019-02-23T07:46:08.640Z,4.83
2019-02-23T07:48:36.795Z,4.63
2019-02-23T07:51:04.844Z,4.97
2019-02-23T07:53:32.894Z,4.57
2019-02-23T07:56:00.920Z,5.50
2019-02-23T07:58:29.053Z,4.63
2019-02-23T08:00:57.095Z,4.07
2019-02-23T08:03:25.195Z,4.30
2019-02-23T08:05:53.220Z,5.50
2019-02-23T08:08:21.269Z,3.00
2019-02-23T08:10:49.408Z,5.30
2019-02-23T08:13:17.541Z,4.67
2019-02-23T08:15:45.592Z,3.73
2019-02-23T08:18:13.535Z,4.00
2019-02-23T08:20:41.703Z,3.37
2019-02-23T08:23:09.739Z,3.00
2019-02-23T08:25:37.767Z,3.00
2019-02-23T08:28:05.912Z,5.77
2019-02-23T08:30:33.948Z,3.77
2019-02-23T08:33:02.026Z,3.30
2019-02-23T08:35:30.087Z,4.33
2019-02-23T08:37:58.203Z,3.17
2019-02-23T08:40:26.243Z,2.70
2019-02-23T08:42:54.415Z,4.47
2019-02-23T08:45:22.646Z,3.33
2019-02-23T08:47:50.691Z,3.90
2019-02-23T08:50:18.828Z,3.97
2019-02-23T08:52:49.524Z,2.43
2019-02-23T08:55:16.863Z,2.47
2019-02-23T08:57:44.955Z,2.60
2019-02-23T09:00:14.413Z,3.23
2019-02-23T09:02:42.360Z,2.23
2019-02-23T09:05:11.024Z,2.60
2019-02-23T09:07:39.047Z,3.20
2019-02-23T09:10:08.652Z,4.47
2019-02-23T09:12:36.671Z,2.00
2019-02-23T09:15:05.252Z,2.67
2019-02-23T09:17:33.300Z,4.43
2019-02-23T09:20:01.296Z,2.00
2019-02-23T09:22:29.454Z,3.23
2019-02-23T09:24:57.491Z,2.80
2019-02-23T09:27:25.572Z,3.03
2019-02-23T09:29:53.639Z,2.40
2019-02-23T09:32:21.672Z,4.40
2019-02-23T09:34:49.812Z,2.13
2019-02-23T09:37:17.872Z,4.27
2019-02-23T09:39:45.930Z,2.13
2019-02-23T09:42:13.824Z,2.07
2019-02-23T09:44:41.978Z,4.03
2019-02-23T09:47:10.096Z,2.13
2019-02-23T09:49:38.308Z,4.63
2019-02-23T09:52:06.627Z,2.40
2019-02-23T09:54:34.705Z,3.40
2019-02-23T09:57:02.758Z,3.10
2019-02-23T09:59:30.853Z,4.73
2019-02-23T10:01:59.231Z,2.17
2019-02-23T10:04:27.288Z,2.07
2019-02-23T10:06:55.328Z,3.47
2019-02-23T10:09:23.553Z,2.20
2019-02-23T10:11:51.776Z,2.13
2019-02-23T10:14:20.896Z,2.37
2019-02-23T10:16:48.877Z,2.60
2019-02-23T10:19:16.972Z,1.20
2019-02-23T10:21:44.898Z,5.27
2019-02-23T10:24:12.842Z,2.70
2019-02-23T10:26:40.874Z,2.70
2019-02-23T10:29:09.220Z,3.87
2019-02-23T10:31:37.228Z,1.87
2019-02-23T10:34:05.275Z,1.93
2019-02-23T10:36:33.519Z,1.20
2019-02-23T10:39:01.451Z,2.97
2019-02-23T10:41:29.536Z,2.63
2019-02-23T10:43:57.455Z,2.07
2019-02-23T10:46:25.500Z,2.10
2019-02-23T10:48:53.722Z,2.57
2019-02-23T10:51:21.828Z,3.93
2019-02-23T10:53:49.903Z,3.47
2019-02-23T10:56:17.932Z,1.63
2019-02-23T10:58:45.970Z,1.87
2019-02-23T11:01:13.800Z,2.43
2019-02-23T11:03:41.852Z,2.00
2019-02-23T11:06:10.084Z,2.27
2019-02-23T11:08:38.296Z,3.37
2019-02-23T11:11:07.127Z,2.80
2019-02-23T11:13:35.348Z,1.87
2019-02-23T11:16:03.433Z,3.33
2019-02-23T11:18:31.451Z,4.73
2019-02-23T11:20:59.301Z,5.07
2019-02-23T11:23:27.613Z,4.37
2019-02-23T11:25:55.740Z,4.23
2019-02-23T11:28:23.955Z,4.30
2019-02-23T11:30:52.195Z,3.37
2019-02-23T11:33:20.269Z,4.33
2019-02-23T11:35:48.306Z,3.47
2019-02-23T11:38:16.391Z,3.77
2019-02-23T11:40:47.472Z,3.90
2019-02-23T11:43:15.618Z,3.53
2019-02-23T11:45:43.628Z,3.43
2019-02-23T11:48:11.661Z,3.60
2019-02-23T11:50:39.816Z,2.57
2019-02-23T11:53:07.875Z,4.10
2019-02-23T11:55:35.933Z,1.80
2019-02-23T11:58:03.952Z,6.40
2019-02-23T12:00:32.127Z,2.37
2019-02-23T12:03:00.167Z,2.80
2019-02-23T12:05:28.252Z,3.27
2019-02-23T12:07:56.276Z,3.10
2019-02-23T12:10:24.344Z,5.00
2019-02-23T12:12:52.441Z,4.27
2019-02-23T12:15:20.490Z,2.93
2019-02-23T12:17:48.563Z,2.17
2019-02-23T12:20:16.615Z,6.13
2019-02-23T12:22:44.695Z,2.60
2019-02-23T12:25:15.918Z,4.50
2019-02-23T12:27:42.644Z,3.27
2019-02-23T12:30:10.833Z,2.50
2019-02-23T12:32:38.853Z,3.40
2019-02-23T12:35:07.639Z,3.37
2019-02-23T12:37:35.886Z,4.07
2019-02-23T12:40:04.062Z,3.93
2019-02-23T12:42:31.984Z,2.27
2019-02-23T12:45:00.308Z,2.93
2019-02-23T12:47:28.281Z,3.43
2019-02-23T12:49:56.226Z,2.27
2019-02-23T12:52:24.260Z,5.60
2019-02-23T12:54:52.416Z,3.87
2019-02-23T12:57:20.461Z,3.00
2019-02-23T12:59:48.579Z,2.53
2019-02-23T13:02:16.936Z,2.97
2019-02-23T13:04:46.389Z,2.53
2019-02-23T13:07:14.492Z,3.57
2019-02-23T13:09:46.782Z,2.50
2019-02-23T13:12:29.316Z,3.67
2019-02-23T13:15:39.928Z,7.27
2019-02-23T13:18:45.694Z,2.73
2019-02-23T13:21:56.769Z,2.67
2019-02-23T13:25:11.776Z,2.83
2019-02-23T13:28:30.580Z,3.17
2019-02-23T13:31:43.607Z,2.20
2019-02-23T13:35:05.669Z,2.13
2019-02-23T13:38:25.328Z,1.80
2019-02-23T13:41:21.389Z,4.00
2019-02-23T13:44:19.379Z,4.33
2019-02-23T13:47:05.747Z,2.97
2019-02-23T13:50:23.791Z,2.20
2019-02-23T13:53:29.231Z,3.83
2019-02-23T13:56:44.407Z,3.20
2019-02-23T13:59:41.641Z,3.13
2019-02-23T14:03:00.191Z,3.07
2019-02-23T14:05:42.069Z,2.90
2019-02-23T14:08:41.976Z,2.57
2019-02-23T14:11:45.164Z,4.10
2019-02-23T14:14:37.912Z,5.50
2019-02-23T14:17:18.525Z,2.10
2019-02-23T14:20:28.925Z,2.93
2019-02-23T14:23:40.567Z,6.00
2019-02-23T14:26:35.041Z,3.10
2019-02-23T14:29:21.441Z,3.37
2019-02-23T14:32:16.755Z,4.13
2019-02-23T14:35:06.722Z,3.23
2019-02-23T14:38:25.995Z,4.40
2019-02-23T14:41:44.871Z,3.70
2019-02-23T14:44:37.154Z,2.60
2019-02-23T14:47:24.668Z,3.73
2019-02-23T14:50:46.804Z,2.63
2019-02-23T14:53:40.184Z,2.30
2019-02-23T14:56:47.591Z,2.20
2019-02-23T15:00:03.312Z,2.60
2019-02-23T15:03:07.581Z,3.20
2019-02-23T15:06:04.404Z,3.00
2019-02-23T15:09:26.632Z,4.00
2019-02-23T15:12:38.160Z,3.23
2019-02-23T15:15:17.821Z,4.13
2019-02-23T15:18:17.712Z,5.37
2019-02-23T15:21:20.518Z,3.90
2019-02-23T15:24:13.151Z,4.77
2019-02-23T15:27:17.495Z,4.10
2019-02-23T15:30:29.646Z,5.90
2019-02-23T15:33:31.762Z,6.07
2019-02-23T15:36:37.828Z,4.50
2019-02-23T15:39:34.181Z,3.97
2019-02-23T15:42:22.555Z,5.17
2019-02-23T15:45:15.956Z,3.73
2019-02-23T15:48:00.633Z,4.60
2019-02-23T15:50:29.020Z,5.17
2019-02-23T15:52:56.990Z,6.27
2019-02-23T15:55:26.483Z,6.30
2019-02-23T15:57:55.016Z,4.63
2019-02-23T16:00:23.059Z,5.97
2019-02-23T16:02:51.032Z,5.00
2019-02-23T16:05:18.988Z,5.93
2019-02-23T16:07:47.320Z,4.97
2019-02-23T16:10:17.591Z,5.97
2019-02-23T16:12:45.224Z,4.67
2019-02-23T16:15:13.312Z,4.87
2019-02-23T16:17:41.802Z,5.10
2019-02-23T16:20:09.877Z,5.00
2019-02-23T16:22:37.848Z,5.73
2019-02-23T16:25:06.484Z,5.90
2019-02-23T16:27:34.565Z,5.00
2019-02-23T16:30:02.601Z,6.07
2019-02-23T16:32:30.644Z,5.27
2019-02-23T16:34:58.685Z,5.63
2019-02-23T16:37:26.760Z,6.30
2019-02-23T16:39:54.909Z,6.50
2019-02-23T16:42:22.932Z,7.17
2019-02-23T16:44:50.968Z,5.33
2019-02-23T16:47:19.107Z,7.67
2019-02-23T16:49:47.135Z,7.13
2019-02-23T16:52:15.240Z,6.30
2019-02-23T16:54:43.331Z,6.23
2019-02-23T16:57:11.402Z,7.53
2019-02-23T16:59:39.436Z,6.00
2019-02-23T17:02:07.532Z,5.73
2019-02-23T17:04:35.734Z,5.27
2019-02-23T17:07:03.743Z,9.07
2019-02-23T17:09:32.087Z,7.03
2019-02-23T17:12:03.255Z,5.90
2019-02-23T17:14:31.612Z,5.53
2019-02-23T17:16:59.666Z,10.20
2019-02-23T17:19:27.827Z,10.20
2019-02-23T17:21:55.873Z,8.00
2019-02-23T17:24:24.103Z,6.60
2019-02-23T17:26:52.242Z,7.67
2019-02-23T17:29:20.296Z,10.30
2019-02-23T17:31:48.407Z,8.37
2019-02-23T17:34:16.504Z,7.80
2019-02-23T17:36:44.588Z,10.03
2019-02-23T17:39:12.621Z,8.10
2019-02-23T17:41:40.664Z,7.27
2019-02-23T17:44:08.788Z,9.23
2019-02-23T17:46:37.160Z,7.53
2019-02-23T17:49:05.248Z,8.27
2019-02-23T17:51:33.528Z,6.37
2019-02-23T17:54:01.588Z,8.27
2019-02-23T17:56:29.623Z,8.93
2019-02-23T17:58:57.786Z,7.47
2019-02-23T18:01:25.839Z,8.77
2019-02-23T18:03:53.968Z,7.57
2019-02-23T18:06:21.974Z,7.70
2019-02-23T18:08:50.045Z,10.23
2019-02-23T18:11:18.124Z,7.27
2019-02-23T18:13:46.176Z,8.67
2019-02-23T18:16:14.322Z,9.70
2019-02-23T18:18:42.684Z,11.00
2019-02-23T18:21:10.811Z,8.30
2019-02-23T18:23:39.065Z,7.77
2019-02-23T18:26:07.103Z,8.37
2019-02-23T18:28:35.282Z,9.80
2019-02-23T18:31:03.423Z,8.60
2019-02-23T18:33:31.396Z,10.00
2019-02-23T18:35:59.500Z,8.03
2019-02-23T18:38:27.844Z,10.47
2019-02-23T18:40:55.936Z,9.40
2019-02-23T18:43:23.983Z,7.53
2019-02-23T18:45:53.747Z,9.50
2019-02-23T18:48:21.867Z,10.83
2019-02-23T18:50:49.812Z,8.90
2019-02-23T18:53:18.803Z,10.33
2019-02-23T18:55:48.119Z,9.47
2019-02-23T18:58:16.367Z,9.40
2019-02-23T19:00:44.440Z,9.37
2019-02-23T19:03:12.598Z,9.40
2019-02-23T19:05:40.631Z,8.27
2019-02-23T19:08:08.763Z,9.50
2019-02-23T19:10:36.986Z,9.30
2019-02-23T19:13:05.080Z,8.93
2019-02-23T19:15:33.296Z,10.00
2019-02-23T19:18:01.544Z,9.47
2019-02-23T19:20:29.636Z,8.70
2019-02-23T19:22:57.732Z,9.37
2019-02-23T19:25:25.823Z,10.87
2019-02-23T19:27:53.854Z,11.20
2019-02-23T19:30:21.887Z,10.17
2019-02-23T19:32:50.014Z,9.77
2019-02-23T19:35:18.062Z,11.43
2019-02-23T19:37:46.092Z,9.73
2019-02-23T19:40:13.965Z,11.63
2019-02-23T19:42:42.042Z,9.17
2019-02-23T19:45:10.394Z,10.60
2019-02-23T19:47:39.012Z,11.93
2019-02-23T19:50:13.138Z,12.50
2019-02-23T19:52:41.298Z,11.00
2019-02-23T19:55:11.016Z,15.47
2019-02-23T19:57:39.288Z,9.80
2019-02-23T20:00:07.813Z,11.00
2019-02-23T20:02:35.772Z,14.30
2019-02-23T20:05:04.125Z,11.37
2019-02-23T20:07:33.450Z,10.50
2019-02-23T20:10:02.668Z,11.40
2019-02-23T20:12:30.620Z,11.53
2019-02-23T20:14:58.728Z,10.43
2019-02-23T20:17:26.759Z,9.70
2019-02-23T20:19:55.000Z,11.17
2019-02-23T20:22:23.048Z,8.83
2019-02-23T20:24:51.216Z,9.63
2019-02-23T20:27:19.265Z,12.83
2019-02-23T20:29:47.327Z,8.40
2019-02-23T20:32:15.407Z,9.17
2019-02-23T20:34:43.472Z,9.37
2019-02-23T20:37:11.488Z,11.73
2019-02-23T20:39:39.704Z,10.43
2019-02-23T20:42:07.699Z,10.00
2019-02-23T20:44:35.731Z,11.47
2019-02-23T20:47:03.729Z,9.47
2019-02-23T20:49:32.600Z,8.97
2019-02-23T20:52:00.838Z,10.50
2019-02-23T20:54:28.981Z,11.77
2019-02-23T20:57:04.112Z,11.37
2019-02-23T20:59:27.253Z,10.93
2019-02-23T21:01:55.292Z,9.67
2019-02-23T21:04:23.244Z,9.70
2019-02-23T21:06:51.486Z,9.93
2019-02-23T21:09:19.644Z,10.97
2019-02-23T21:11:47.765Z,9.63
2019-02-23T21:14:15.989Z,9.00
2019-02-23T21:16:44.076Z,11.07
2019-02-23T21:19:12.124Z,10.50
2019-02-23T21:21:40.185Z,11.50
2019-02-23T21:24:08.275Z,7.27
2019-02-23T21:26:36.332Z,10.50
2019-02-23T21:29:04.368Z,10.37
2019-02-23T21:31:32.452Z,11.43
2019-02-23T21:34:00.576Z,14.47
2019-02-23T21:36:28.719Z,13.03
2019-02-23T21:38:56.692Z,9.40
2019-02-23T21:41:24.746Z,12.67
2019-02-23T21:43:52.784Z,12.07
2019-02-23T21:46:20.864Z,13.00
2019-02-23T21:48:48.984Z,12.43
2019-02-23T21:51:17.147Z,9.07
2019-02-23T21:53:45.401Z,9.10
2019-02-23T21:56:13.476Z,10.57
2019-02-23T21:58:41.591Z,9.50
2019-02-23T22:01:09.620Z,8.93
2019-02-23T22:03:37.844Z,8.03
2019-02-23T22:06:05.988Z,10.97
2019-02-23T22:08:34.188Z,11.57
2019-02-23T22:11:02.541Z,8.53
2019-02-23T22:13:30.593Z,11.87
2019-02-23T22:15:58.669Z,10.10
2019-02-23T22:18:26.733Z,9.63
2019-02-23T22:20:54.790Z,8.27
2019-02-23T22:23:22.873Z,9.50
2019-02-23T22:25:50.940Z,9.23
2019-02-23T22:28:18.933Z,8.87
2019-02-23T22:30:47.101Z,12.90
2019-02-23T22:33:15.143Z,11.23
2019-02-23T22:35:43.163Z,13.73
2019-02-23T22:38:11.305Z,9.17
2019-02-23T22:40:39.655Z,10.03
2019-02-23T22:43:08.651Z,8.83
2019-02-23T22:45:36.692Z,10.03
2019-02-23T22:48:04.858Z,9.37
2019-02-23T22:50:32.902Z,10.93
2019-02-23T22:53:00.947Z,9.33
2019-02-23T22:55:29.073Z,13.17
2019-02-23T22:57:57.402Z,9.37
2019-02-23T23:00:33.301Z,11.27
2019-02-23T23:03:01.547Z,9.07
2019-02-23T23:05:29.614Z,15.80
2019-02-23T23:07:57.656Z,10.63
2019-02-23T23:10:25.692Z,9.03
2019-02-23T23:12:53.796Z,12.27
2019-02-23T23:15:21.832Z,10.67
2019-02-23T23:17:51.399Z,7.43
2019-02-23T23:20:19.598Z,11.40
2019-02-23T23:22:47.611Z,12.33
2019-02-23T23:25:15.481Z,11.40
2019-02-23T23:27:49.310Z,11.30
2019-02-23T23:30:13.756Z,10.87
2019-02-23T23:32:42.097Z,13.30
2019-02-23T23:35:10.168Z,10.93
2019-02-23T23:37:38.344Z,10.63
2019-02-23T23:40:06.552Z,12.03
2019-02-23T23:42:34.722Z,12.47
2019-02-23T23:45:03.097Z,14.57
2019-02-23T23:47:31.443Z,13.43
2019-02-23T23:49:59.481Z,11.23
2019-02-23T23:52:27.532Z,14.27
2019-02-23T23:54:55.458Z,14.57
2019-02-23T23:57:23.500Z,13.30
2019-02-23T23:59:51.727Z,13.77
